Cuba, Kansas
Current Conditions -  °F | °C
As of 2:55 PM on Sunday 28 Dec 2014 (Local Time) from KCNK Reporting Station
Clear Clear  
Wind Chill: 34°   Ceiling: Unl
Heat Index: 39°   Visibility: 10mi
Dew Point: 23°   Wind: 7mph
Humidity: 53%   Direction: 190°S
Pressure: 30.07"   Gusts: NA
Location:  39.8°N, 97.46°W
Report Text: KCNK 282055Z AUTO 19006KT 10SM CLR 04/M05 A3007 RMK AO2 SLP195 T00391050 56024
Loading
Personal Weather Stations






























Interactive Weather Map New forecast layout! Learn more

10-Day Weather Forecast

Advertisements
Track Severe Weather on mobile